Time;durP1;ratioP1;P1;durP2;ratioP2;P2;SDS_P1;SDS_P2;PMS_P1;PMS_P2;Temp;Humidity;BMP_temperature;BMP_pressure;BME280_temperature;BME280_humidity;BME280_pressure;Samples;Min_cycle;Max_cycle;Signal;HPM_P1;HPM_P2
2022/04/05 00:00:58;;;;;;;14.33;8.73;;;;;;;4.22;93.61;99738.66;5033942;28;21001;-50
2022/04/05 00:03:26;;;;;;;9.50;8.47;;;;;;;4.21;92.97;99739.63;5034228;28;20946;-45
2022/04/05 00:05:54;;;;;;;12.57;8.50;;;;;;;4.19;92.80;99743.47;5033405;28;20473;-46
2022/04/05 00:08:23;;;;;;;9.70;8.07;;;;;;;4.15;91.20;99739.56;5033944;28;20451;-47
2022/04/05 00:10:51;;;;;;;11.50;8.93;;;;;;;4.11;93.51;99738.25;5033826;28;20428;-48
2022/04/05 00:13:18;;;;;;;10.73;9.00;;;;;;;4.11;93.23;99741.72;5034016;28;20435;-47
2022/04/05 00:15:47;;;;;;;9.37;8.37;;;;;;;4.04;92.93;99739.97;5033389;28;20835;-47
2022/04/05 00:18:15;;;;;;;10.80;8.60;;;;;;;4.03;94.78;99746.25;5033971;28;20443;-47
2022/04/05 00:20:43;;;;;;;11.40;8.67;;;;;;;4.00;95.37;99750.09;5033576;28;20566;-50
2022/04/05 00:23:10;;;;;;;9.63;8.57;;;;;;;3.93;93.92;99751.78;5033726;28;20433;-48
2022/04/05 00:25:39;;;;;;;13.27;9.10;;;;;;;3.93;94.32;99749.16;5033148;28;20478;-47
2022/04/05 00:28:07;;;;;;;9.83;9.20;;;;;;;3.94;94.40;99755.25;5033686;28;20927;-47
2022/04/05 00:30:35;;;;;;;9.27;8.37;;;;;;;3.93;94.66;99759.69;5033333;28;20470;-47
2022/04/05 00:33:03;;;;;;;12.43;8.13;;;;;;;3.91;94.06;99751.16;5033706;28;20432;-47
2022/04/05 00:35:30;;;;;;;10.93;7.90;;;;;;;3.92;94.83;99763.31;5033241;28;20850;-48
2022/04/05 00:37:58;;;;;;;8.80;8.10;;;;;;;3.87;94.36;99761.22;5033380;28;20432;-50
2022/04/05 00:40:26;;;;;;;10.80;9.77;;;;;;;3.84;93.79;99764.22;5033041;28;21022;-49
2022/04/05 00:42:55;;;;;;;19.30;8.70;;;;;;;3.82;93.73;99760.91;5033527;28;20486;-48
2022/04/05 00:45:23;;;;;;;8.73;7.90;;;;;;;3.79;92.76;99763.91;5026199;28;20461;-46
2022/04/05 00:47:54;;;;;;;11.23;9.00;;;;;;;3.75;93.77;99761.81;5031943;28;20434;-46
2022/04/05 00:50:23;;;;;;;10.37;9.40;;;;;;;3.73;94.02;99759.34;5032976;28;20528;-49
2022/04/05 00:52:51;;;;;;;12.70;9.00;;;;;;;3.72;94.23;99762.16;5033164;28;20432;-47
2022/04/05 00:55:22;;;;;;;9.30;8.60;;;;;;;3.70;94.95;99764.97;5032908;28;20468;-46
2022/04/05 00:57:53;;;;;;;11.87;9.97;;;;;;;3.67;95.41;99769.78;5033185;28;20428;-49
2022/04/05 01:00:22;;;;;;;9.67;8.87;;;;;;;3.65;94.74;99767.31;5032911;28;20448;-51
2022/04/05 01:02:53;;;;;;;16.13;10.20;;;;;;;3.67;96.16;99770.63;5033073;28;20442;-47
2022/04/05 01:05:22;;;;;;;13.40;10.50;;;;;;;3.59;94.83;99781.19;5032543;28;21073;-46
2022/04/05 01:07:52;;;;;;;10.63;8.93;;;;;;;3.61;94.32;99779.22;5033004;28;20806;-46
2022/04/05 01:10:21;;;;;;;14.33;10.10;;;;;;;3.62;95.13;99785.31;5032028;28;20441;-46
2022/04/05 01:12:49;;;;;;;10.30;9.40;;;;;;;3.63;96.09;99784.31;5032831;28;20435;-49
2022/04/05 01:15:17;;;;;;;12.83;9.70;;;;;;;3.59;95.52;99783.84;5032295;28;21029;-46
2022/04/05 01:17:46;;;;;;;10.47;9.40;;;;;;;3.57;94.77;99785.84;5032715;28;20495;-47
2022/04/05 01:20:14;;;;;;;9.33;8.83;;;;;;;3.55;95.70;99787.84;5032714;28;20497;-50
2022/04/05 01:22:49;;;;;;;12.57;11.37;;;;;;;3.54;94.92;99777.44;5032713;28;20917;-50
2022/04/05 01:25:19;;;;;;;10.83;9.70;;;;;;;3.54;94.45;99780.91;5032330;28;20482;-46
2022/04/05 01:27:48;;;;;;;12.93;9.97;;;;;;;3.52;94.66;99790.81;5032503;28;20535;-47
2022/04/05 01:30:16;;;;;;;10.30;8.93;;;;;;;3.54;94.91;99794.09;5032093;28;20440;-47
2022/04/05 01:32:43;;;;;;;9.67;8.87;;;;;;;3.55;94.81;99784.38;5032608;28;20434;-49
2022/04/05 01:35:12;;;;;;;10.20;9.37;;;;;;;3.57;93.85;99793.75;5032292;28;20539;-46
2022/04/05 01:37:39;;;;;;;13.60;8.70;;;;;;;3.56;93.60;99788.63;5032380;28;20451;-50
2022/04/05 01:40:08;;;;;;;10.97;8.77;;;;;;;3.54;93.62;99785.38;5032268;28;20431;-48
2022/04/05 01:42:37;;;;;;;21.63;9.40;;;;;;;3.57;94.53;99793.75;5031923;28;20983;-48
2022/04/05 01:45:06;;;;;;;15.07;8.73;;;;;;;3.53;94.29;99795.06;5032908;28;21076;-47
2022/04/05 01:47:34;;;;;;;15.37;8.77;;;;;;;3.56;94.85;99799.19;5032237;28;20827;-50
2022/04/05 01:50:02;;;;;;;10.20;8.87;;;;;;;3.52;94.50;99804.00;5032089;28;20436;-46
2022/04/05 01:52:30;;;;;;;10.67;8.67;;;;;;;3.49;93.95;99800.88;5032060;28;20424;-47
2022/04/05 01:54:57;;;;;;;8.63;7.97;;;;;;;3.47;95.17;99806.31;5031577;28;20456;-45
2022/04/05 01:57:25;;;;;;;9.23;8.37;;;;;;;3.49;95.36;99807.00;5032282;28;20558;-47
2022/04/05 01:59:54;;;;;;;13.80;8.83;;;;;;;3.47;95.92;99802.84;5032113;28;20475;-47
2022/04/05 02:02:22;;;;;;;9.10;8.20;;;;;;;3.48;95.62;99815.88;5031904;28;20483;-48
2022/04/05 02:04:50;;;;;;;9.40;8.70;;;;;;;3.49;95.63;99816.69;5031353;28;20470;-48
2022/04/05 02:07:19;;;;;;;10.33;9.20;;;;;;;3.47;96.32;99811.59;5031731;28;20555;-46
2022/04/05 02:09:49;;;;;;;15.30;9.80;;;;;;;3.47;97.01;99813.41;5031817;28;20436;-47
2022/04/05 02:12:17;;;;;;;10.70;8.80;;;;;;;3.43;96.57;99805.03;5031600;28;20450;-47
2022/04/05 02:14:46;;;;;;;10.43;9.33;;;;;;;3.46;96.17;99809.13;5031489;28;20413;-45
2022/04/05 02:17:15;;;;;;;11.67;10.00;;;;;;;3.44;96.60;99814.56;5031817;28;20452;-46
2022/04/05 02:19:43;;;;;;;12.70;10.60;;;;;;;3.44;95.94;99814.56;5031576;28;20813;-48
2022/04/05 02:22:11;;;;;;;16.07;9.60;;;;;;;3.43;95.36;99818.22;5031392;28;20467;-46
2022/04/05 02:24:39;;;;;;;9.67;8.77;;;;;;;3.38;94.86;99817.91;5031393;28;20436;-46
2022/04/05 02:27:07;;;;;;;10.03;9.00;;;;;;;3.40;94.73;99829.09;5031864;28;20448;-49
2022/04/05 02:29:35;;;;;;;9.40;8.73;;;;;;;3.39;95.31;99826.63;5031684;28;20486;-46
2022/04/05 02:32:03;;;;;;;12.40;9.80;;;;;;;3.43;94.84;99825.31;5031624;28;20428;-47
2022/04/05 02:34:32;;;;;;;12.30;8.70;;;;;;;3.47;94.05;99842.38;5031023;28;20527;-46
2022/04/05 02:37:00;;;;;;;12.30;9.40;;;;;;;3.48;94.78;99825.59;5031750;28;20811;-46
2022/04/05 02:39:28;;;;;;;10.63;9.07;;;;;;;3.49;94.97;99835.97;5031582;28;20443;-49
2022/04/05 02:41:56;;;;;;;10.03;9.33;;;;;;;3.50;95.01;99850.78;5031246;28;20478;-46
2022/04/05 02:44:23;;;;;;;19.23;10.47;;;;;;;3.48;94.49;99844.88;5031540;28;20435;-47
2022/04/05 02:46:51;;;;;;;10.43;9.40;;;;;;;3.44;94.67;99856.75;5030874;28;20464;-47
2022/04/05 02:49:19;;;;;;;13.27;8.83;;;;;;;3.42;94.71;99856.09;5031462;28;20807;-46
2022/04/05 02:51:48;;;;;;;11.10;9.30;;;;;;;3.38;94.85;99857.44;5031390;28;20432;-49
2022/04/05 02:54:16;;;;;;;15.60;8.17;;;;;;;3.36;95.16;99856.78;5031337;28;20432;-47
2022/04/05 02:56:43;;;;;;;14.00;8.20;;;;;;;3.32;94.34;99855.47;5030900;28;20470;-46
2022/04/05 02:59:11;;;;;;;9.17;8.47;;;;;;;3.32;95.05;99860.75;5031342;28;20980;-45
2022/04/05 03:01:39;;;;;;;10.13;9.03;;;;;;;3.29;94.94;99864.56;5031002;28;20483;-47
2022/04/05 03:04:08;;;;;;;10.90;9.20;;;;;;;3.28;93.94;99860.28;5031493;28;20523;-47
2022/04/05 03:06:35;;;;;;;10.23;9.00;;;;;;;3.28;95.14;99860.28;5030648;28;20834;-48
2022/04/05 03:09:04;;;;;;;11.70;9.80;;;;;;;3.24;94.79;99874.78;5031383;28;20810;-46
2022/04/05 03:11:32;;;;;;;10.30;9.40;;;;;;;3.21;94.94;99866.41;5030689;28;20436;-46
2022/04/05 03:13:59;;;;;;;13.10;9.57;;;;;;;3.18;93.98;99870.19;5029305;28;20436;-50
2022/04/05 03:16:27;;;;;;;13.30;9.20;;;;;;;3.17;94.59;99873.81;5028793;28;20466;-49
2022/04/05 03:18:55;;;;;;;9.30;8.73;;;;;;;3.18;94.91;99872.00;5030293;28;21002;-48
2022/04/05 03:21:22;;;;;;;13.53;9.90;;;;;;;3.15;94.58;99875.81;5031076;28;20439;-49
2022/04/05 03:23:50;;;;;;;16.30;9.57;;;;;;;3.13;93.90;99877.81;5031221;28;20467;-46
2022/04/05 03:26:19;;;;;;;11.73;9.00;;;;;;;3.12;93.67;99878.78;5030497;28;20474;-46
2022/04/05 03:28:47;;;;;;;10.30;9.37;;;;;;;3.12;93.46;99881.41;5030852;28;20462;-46
2022/04/05 03:31:14;;;;;;;9.40;8.63;;;;;;;3.11;92.23;99884.22;5031149;28;20438;-46
2022/04/05 03:33:42;;;;;;;12.30;8.40;;;;;;;3.14;92.02;99889.13;5034366;28;20427;-46
2022/04/05 03:36:10;;;;;;;12.37;10.97;;;;;;;3.15;91.29;99891.63;5034109;28;20472;-47
2022/04/05 03:38:37;;;;;;;10.43;9.33;;;;;;;3.12;92.35;99891.13;5034597;28;20428;-45
2022/04/05 03:41:05;;;;;;;9.30;8.30;;;;;;;3.14;92.41;99889.13;5034217;28;20432;-45
2022/04/05 03:43:38;;;;;;;10.93;8.10;;;;;;;3.11;91.70;99892.09;5034276;28;20562;-46
2022/04/05 03:46:06;;;;;;;12.20;8.80;;;;;;;3.10;92.50;99901.03;5025484;28;20827;-45
2022/04/05 03:48:33;;;;;;;9.23;8.53;;;;;;;3.09;92.14;99902.84;5034229;28;20523;-47
2022/04/05 03:51:08;;;;;;;8.90;8.40;;;;;;;3.07;92.51;99910.09;5034081;28;20969;-45
2022/04/05 03:53:35;;;;;;;14.73;10.00;;;;;;;3.06;92.32;99910.25;5034263;28;20431;-49
2022/04/05 03:56:03;;;;;;;10.73;9.93;;;;;;;3.08;92.53;99905.63;5033467;28;20470;-48
2022/04/05 03:58:31;;;;;;;19.53;10.80;;;;;;;3.05;92.61;99909.41;5034261;28;20432;-47
2022/04/05 04:00:59;;;;;;;12.83;9.50;;;;;;;3.03;92.70;99915.84;5033920;28;20440;-46
2022/04/05 04:03:28;;;;;;;12.90;10.37;;;;;;;2.99;92.65;99915.34;5033970;28;20475;-46
2022/04/05 04:05:55;;;;;;;14.77;9.90;;;;;;;2.95;93.59;99914.06;5033327;28;20475;-47
2022/04/05 04:08:23;;;;;;;14.40;10.20;;;;;;;2.98;93.53;99920.81;5033917;28;20439;-48
2022/04/05 04:10:51;;;;;;;9.10;8.40;;;;;;;2.95;93.08;99927.22;5034167;28;20438;-45
2022/04/05 04:13:19;;;;;;;16.60;9.03;;;;;;;2.95;93.02;99929.03;5033931;28;20527;-47
2022/04/05 04:15:47;;;;;;;12.10;8.23;;;;;;;2.96;92.91;99925.41;5033491;28;20468;-45
2022/04/05 04:18:16;;;;;;;9.67;8.00;;;;;;;2.95;92.92;99927.22;5033776;28;20460;-46
2022/04/05 04:20:44;;;;;;;12.17;8.63;;;;;;;2.95;92.61;99926.41;5033760;28;20439;-45
2022/04/05 04:23:12;;;;;;;16.67;8.03;;;;;;;2.96;92.85;99930.66;5033471;28;20476;-47
2022/04/05 04:25:46;;;;;;;23.17;11.00;;;;;;;2.99;92.22;99932.97;5033048;28;20464;-47
2022/04/05 04:28:13;;;;;;;12.97;10.63;;;;;;;3.00;91.88;99934.63;5033522;28;20455;-46
2022/04/05 04:30:41;;;;;;;11.60;7.90;;;;;;;2.98;91.98;99934.81;5033504;28;20436;-45
2022/04/05 04:33:09;;;;;;;13.40;8.40;;;;;;;2.98;91.93;99936.59;5033471;28;20958;-47
2022/04/05 04:35:41;;;;;;;9.00;8.20;;;;;;;2.96;91.69;99928.03;5032808;28;20472;-46
2022/04/05 04:38:09;;;;;;;8.70;7.90;;;;;;;2.92;91.57;99934.63;5033618;28;20432;-48
2022/04/05 04:40:37;;;;;;;9.00;7.90;;;;;;;2.91;91.78;99935.63;5033313;28;20447;-47
2022/04/05 04:43:06;;;;;;;21.17;11.37;;;;;;;2.88;91.95;99941.22;5033146;28;20995;-46
2022/04/05 04:45:34;;;;;;;17.37;10.50;;;;;;;2.89;92.22;99938.44;5034179;28;20835;-48
2022/04/05 04:48:01;;;;;;;10.60;9.47;;;;;;;2.88;92.92;99938.59;5025206;28;20826;-45
2022/04/05 04:50:29;;;;;;;18.00;10.53;;;;;;;2.93;93.47;99941.56;5032911;28;20955;-45
2022/04/05 04:52:58;;;;;;;11.93;8.13;;;;;;;3.00;94.14;99956.50;5033255;28;20424;-47
2022/04/05 04:55:27;;;;;;;17.23;9.10;;;;;;;3.09;94.08;99952.06;5032476;28;20464;-45
2022/04/05 04:58:15;;;;;;;14.07;8.73;;;;;;;3.24;93.70;99958.28;5033256;28;20631;-45
2022/04/05 05:00:44;;;;;;;10.73;9.50;;;;;;;3.44;92.76;99953.44;5032698;28;20440;-45
2022/04/05 05:03:12;;;;;;;10.40;9.53;;;;;;;3.55;92.60;99963.63;5032962;28;20482;-46
2022/04/05 05:05:40;;;;;;;15.10;11.17;;;;;;;3.58;91.64;99963.28;5032216;28;20834;-45
2022/04/05 05:08:09;;;;;;;14.67;10.50;;;;;;;3.63;91.20;99968.88;5050177;22;20488;-46
2022/04/05 05:10:37;;;;;;;8.83;8.10;;;;;;;3.63;90.51;99985.50;5032548;28;20807;-46
2022/04/05 05:13:05;;;;;;;14.23;9.47;;;;;;;3.55;91.46;99971.53;5032724;28;20946;-44
2022/04/05 05:15:33;;;;;;;11.33;10.23;;;;;;;3.41;94.01;99965.13;5032252;28;20464;-43
2022/04/05 05:18:00;;;;;;;12.60;11.50;;;;;;;3.30;95.76;99970.78;5032842;28;20459;-44
2022/04/05 05:20:28;;;;;;;10.60;9.90;;;;;;;3.24;96.33;99968.81;5032664;28;20438;-45
2022/04/05 05:22:55;;;;;;;11.10;10.20;;;;;;;3.26;96.32;99982.63;5032839;28;20438;-45
2022/04/05 05:25:24;;;;;;;12.07;11.10;;;;;;;3.36;96.25;99991.19;5032082;28;20475;-45
2022/04/05 05:27:52;;;;;;;14.83;12.00;;;;;;;3.48;96.02;99981.94;5032619;28;20457;-44
2022/04/05 05:30:19;;;;;;;12.23;11.00;;;;;;;3.56;95.60;99986.34;5032198;28;20441;-44
2022/04/05 05:32:49;;;;;;;11.03;9.93;;;;;;;3.80;94.77;99992.34;5032594;28;20439;-47
2022/04/05 05:35:17;;;;;;;10.47;9.43;;;;;;;4.13;93.40;99987.75;5031936;28;20470;-42
2022/04/05 05:37:46;;;;;;;22.70;9.97;;;;;;;4.73;92.92;99994.94;5032393;28;20452;-42
2022/04/05 05:40:15;;;;;;;12.80;8.10;;;;;;;5.58;90.55;99998.94;5032256;28;20459;-42
2022/04/05 05:42:55;;;;;;;12.37;8.00;;;;;;;6.12;85.43;100010.84;5032449;28;20433;-44
2022/04/05 05:45:23;;;;;;;8.57;7.97;;;;;;;6.27;80.70;100010.84;5038390;28;20463;-42
2022/04/05 05:47:51;;;;;;;13.30;8.70;;;;;;;6.37;78.09;100006.03;5043991;28;20447;-42
2022/04/05 05:50:19;;;;;;;9.03;8.43;;;;;;;5.84;77.59;100007.22;5051890;28;21165;-45
2022/04/05 05:52:47;;;;;;;13.00;9.07;;;;;;;5.54;79.33;100016.97;5051806;28;20435;-43
2022/04/05 05:55:18;;;;;;;10.63;9.77;;;;;;;5.17;80.75;100021.50;5051087;28;20465;-45
2022/04/05 05:57:46;;;;;;;9.37;8.97;;;;;;;4.90;83.78;100009.66;5051824;28;20985;-42
2022/04/05 06:00:17;;;;;;;9.80;9.17;;;;;;;4.86;83.83;100021.59;5051726;28;20431;-43
2022/04/05 06:02:45;;;;;;;9.57;8.60;;;;;;;5.75;87.16;100020.72;5051838;28;20466;-44
2022/04/05 06:05:13;;;;;;;8.50;8.03;;;;;;;6.23;82.08;100021.97;5051267;28;20471;-43
2022/04/05 06:07:42;;;;;;;8.13;7.40;;;;;;;6.86;75.98;100007.97;5051697;28;20838;-44
2022/04/05 06:10:12;;;;;;;9.60;7.80;;;;;;;7.29;73.42;100014.84;5051653;28;20445;-45
2022/04/05 06:12:41;;;;;;;8.37;7.73;;;;;;;7.57;71.45;100023.63;5051811;28;20427;-46
2022/04/05 06:15:10;;;;;;;9.07;8.27;;;;;;;7.73;69.99;100019.84;5051201;28;20469;-46
2022/04/05 06:17:41;;;;;;;9.00;8.33;;;;;;;8.01;69.52;100025.91;5051293;28;20451;-45
2022/04/05 06:20:10;;;;;;;9.90;7.70;;;;;;;8.25;67.49;100030.69;5051721;28;20434;-41
2022/04/05 06:22:42;;;;;;;8.20;7.63;;;;;;;8.26;65.10;100040.31;5051627;28;20427;-46
2022/04/05 06:25:11;;;;;;;10.10;9.13;;;;;;;8.41;64.40;100039.38;5051107;28;20467;-46
2022/04/05 06:27:39;;;;;;;11.00;8.27;;;;;;;8.83;63.71;100036.41;5051517;28;20447;-45
2022/04/05 06:30:09;;;;;;;10.87;8.50;;;;;;;8.93;62.19;100042.13;5051306;28;20946;-45
2022/04/05 06:32:37;;;;;;;12.70;7.93;;;;;;;9.47;62.77;100049.13;5051754;28;20441;-43
2022/04/05 06:35:08;;;;;;;7.23;6.67;;;;;;;9.86;60.79;100052.53;5051007;28;20990;-44
2022/04/05 06:37:36;;;;;;;13.53;8.47;;;;;;;10.57;61.96;100049.84;5051458;28;20451;-46
2022/04/05 06:40:07;;;;;;;10.83;9.80;;;;;;;10.94;60.77;100057.00;5051452;28;20439;-44
2022/04/05 06:42:35;;;;;;;8.90;8.10;;;;;;;11.07;57.95;100045.44;5051231;28;20420;-43
2022/04/05 06:45:03;;;;;;;8.30;7.30;;;;;;;11.55;56.49;100049.16;5049369;28;20498;-43
2022/04/05 06:47:31;;;;;;;10.77;7.83;;;;;;;11.49;54.55;100054.53;5043042;28;20447;-44
2022/04/05 06:49:58;;;;;;;7.53;6.93;;;;;;;11.68;54.65;100056.19;5051438;28;20596;-44
2022/04/05 06:52:28;;;;;;;8.67;7.70;;;;;;;11.86;55.80;100052.75;5051190;28;20784;-44
2022/04/05 06:54:55;;;;;;;7.23;6.53;;;;;;;11.77;54.38;100054.09;5050841;28;20834;-43
2022/04/05 06:57:23;;;;;;;8.43;7.53;;;;;;;11.10;51.95;100048.50;5051110;28;20795;-43
2022/04/05 06:59:56;;;;;;;9.73;8.73;;;;;;;11.11;54.30;100065.28;5051447;28;20496;-43
2022/04/05 07:02:23;;;;;;;7.90;7.27;;;;;;;11.07;54.31;100064.09;5051481;28;20427;-45
2022/04/05 07:04:51;;;;;;;7.20;6.47;;;;;;;10.54;54.63;100066.28;5050566;28;20554;-46
2022/04/05 07:07:19;;;;;;;8.37;7.80;;;;;;;10.34;55.57;100069.00;5052088;28;20467;-44
2022/04/05 07:09:48;;;;;;;9.60;8.63;;;;;;;9.94;56.63;100073.63;5054979;28;20427;-45
2022/04/05 07:12:15;;;;;;;14.13;8.20;;;;;;;9.98;56.81;100071.34;5055009;28;20435;-45
2022/04/05 07:14:43;;;;;;;9.83;8.20;;;;;;;9.76;57.09;100075.31;5054363;28;20437;-42
2022/04/05 07:17:11;;;;;;;8.13;7.43;;;;;;;9.32;58.41;100075.94;5054980;28;20457;-45
2022/04/05 07:19:38;;;;;;;8.63;7.63;;;;;;;8.87;59.73;100075.66;5054926;28;20818;-44
2022/04/05 07:22:06;;;;;;;12.17;7.40;;;;;;;8.62;60.58;100076.44;5054466;28;20431;-47
2022/04/05 07:24:34;;;;;;;14.23;8.10;;;;;;;8.27;61.87;100073.84;5054539;28;20482;-43
2022/04/05 07:27:03;;;;;;;7.33;6.83;;;;;;;8.18;61.79;100087.47;5054773;28;20821;-43
2022/04/05 07:29:31;;;;;;;11.27;7.00;;;;;;;7.62;63.97;100084.03;5054745;28;20431;-46
2022/04/05 07:32:00;;;;;;;8.13;7.47;;;;;;;7.74;63.69;100074.53;5054569;28;20435;-46
2022/04/05 07:34:27;;;;;;;7.40;6.80;;;;;;;7.59;64.97;100073.81;5054124;28;20517;-43
2022/04/05 07:36:55;;;;;;;7.93;6.33;;;;;;;7.69;64.01;100067.16;5054290;28;20494;-46
2022/04/05 07:39:23;;;;;;;11.57;6.60;;;;;;;7.21;65.15;100075.97;5054646;28;20437;-46
2022/04/05 07:41:51;;;;;;;7.13;5.97;;;;;;;7.03;64.90;100084.38;5054319;28;20435;-46
2022/04/05 07:44:20;;;;;;;6.73;6.10;;;;;;;6.85;65.13;100083.16;5054415;28;20481;-47
2022/04/05 07:46:48;;;;;;;9.13;6.30;;;;;;;6.84;67.18;100084.19;5051862;28;20470;-44
2022/04/05 07:49:15;;;;;;;7.10;5.57;;;;;;;6.81;66.30;100081.94;5034443;28;20927;-48
2022/04/05 07:51:43;;;;;;;5.90;5.40;;;;;;;6.63;66.43;100082.34;5034037;28;20966;-45
2022/04/05 07:54:10;;;;;;;7.77;6.13;;;;;;;6.61;67.28;100089.63;5034408;28;20436;-43
2022/04/05 07:56:38;;;;;;;8.63;6.30;;;;;;;6.46;68.16;100096.78;5033631;28;20468;-44
2022/04/05 07:59:06;;;;;;;11.40;6.40;;;;;;;6.15;70.82;100090.91;5034205;28;20953;-48
2022/04/05 08:01:35;;;;;;;7.47;6.10;;;;;;;5.83;71.34;100087.59;5034133;28;20440;-44
2022/04/05 08:04:03;;;;;;;8.80;7.93;;;;;;;5.40;75.17;100102.41;5034371;28;20444;-43
2022/04/05 08:06:31;;;;;;;10.70;10.10;;;;;;;5.12;79.50;100090.75;5033135;28;20479;-43
2022/04/05 08:09:00;;;;;;;16.03;14.53;;;;;;;4.80;83.72;100106.81;5034236;28;20471;-43
2022/04/05 08:11:27;;;;;;;16.37;15.57;;;;;;;4.53;87.92;100123.97;5033807;28;20436;-46
2022/04/05 08:13:56;;;;;;;20.43;19.30;;;;;;;4.23;92.01;100128.22;5033811;28;20971;-42
2022/04/05 08:16:29;;;;;;;18.70;17.83;;;;;;;4.11;93.09;100128.75;5033290;28;20481;-42
2022/04/05 08:18:58;;;;;;;17.53;16.70;;;;;;;3.97;94.22;100125.03;5033343;28;20473;-42
2022/04/05 08:21:26;;;;;;;18.77;17.97;;;;;;;3.72;93.87;100124.25;5033632;28;20538;-46
2022/04/05 08:23:54;;;;;;;19.60;18.77;;;;;;;3.63;94.58;100127.88;5033812;28;20432;-43
2022/04/05 08:26:21;;;;;;;18.70;18.10;;;;;;;3.71;96.94;100119.13;5033125;28;20464;-42
2022/04/05 08:28:55;;;;;;;20.37;18.80;;;;;;;3.78;97.93;100126.22;5033611;28;20433;-42
2022/04/05 08:31:23;;;;;;;18.17;17.30;;;;;;;3.89;97.96;100128.50;5033670;28;20862;-42
2022/04/05 08:33:51;;;;;;;18.97;17.97;;;;;;;4.35;98.47;100115.47;5033448;28;20440;-42
2022/04/05 08:36:20;;;;;;;17.47;16.60;;;;;;;4.86;98.84;100117.53;5032911;28;20832;-44
2022/04/05 08:38:48;;;;;;;16.53;15.93;;;;;;;5.31;98.48;100115.88;5033553;28;20827;-44
2022/04/05 08:41:19;;;;;;;16.20;15.60;;;;;;;5.63;98.11;100115.56;5033100;28;20481;-42
2022/04/05 08:43:49;;;;;;;15.33;14.73;;;;;;;5.89;96.32;100110.72;5033604;28;20432;-45
2022/04/05 08:46:18;;;;;;;13.13;12.53;;;;;;;6.28;94.51;100120.19;5040798;28;20484;-46
2022/04/05 08:48:48;;;;;;;13.13;12.67;;;;;;;6.82;94.05;100118.81;5051427;28;20431;-44
2022/04/05 08:51:15;;;;;;;13.13;12.53;;;;;;;7.02;87.05;100122.50;5052950;28;20611;-45
2022/04/05 08:53:44;;;;;;;11.63;10.83;;;;;;;7.22;83.82;100117.41;5052996;28;20435;-44
2022/04/05 08:56:13;;;;;;;10.60;10.10;;;;;;;7.40;81.92;100115.13;5052517;28;20826;-42
2022/04/05 08:58:41;;;;;;;13.00;9.37;;;;;;;7.12;76.03;100117.72;5053149;28;20435;-46
2022/04/05 09:01:09;;;;;;;10.60;9.33;;;;;;;7.14;77.52;100123.63;5052686;28;20435;-42
2022/04/05 09:03:37;;;;;;;10.87;10.10;;;;;;;7.13;78.66;100123.84;5052942;28;20527;-43
2022/04/05 09:06:28;;;;;;;10.33;9.53;;;;;;;7.05;76.42;100127.44;5052347;28;20479;-44
2022/04/05 09:09:07;;;;;;;9.83;9.10;;;;;;;7.09;77.02;100123.41;5052961;28;20454;-42
2022/04/05 09:11:35;;;;;;;9.10;8.57;;;;;;;7.05;76.59;100114.16;5052706;28;20438;-45
2022/04/05 09:14:05;;;;;;;12.70;9.23;;;;;;;7.51;78.00;100119.06;5052767;28;20431;-44
2022/04/05 09:16:34;;;;;;;11.20;10.10;;;;;;;7.59;73.75;100101.19;5052053;28;20497;-45
2022/04/05 09:19:10;;;;;;;18.70;8.40;;;;;;;7.82;74.73;100108.91;5052440;28;20493;-45
2022/04/05 09:21:52;;;;;;;9.43;8.13;;;;;;;8.03;73.21;100108.03;5052453;28;20438;-44
2022/04/05 09:24:21;;;;;;;10.93;10.33;;;;;;;8.12;71.56;100114.81;5052537;28;20834;-44
2022/04/05 09:26:49;;;;;;;9.27;8.67;;;;;;;8.29;70.80;100118.81;5051757;28;21040;-44
2022/04/05 09:29:18;;;;;;;12.63;12.00;;;;;;;8.76;72.23;100110.84;5051744;28;20454;-46
2022/04/05 09:31:49;;;;;;;9.93;8.53;;;;;;;8.98;69.90;100110.69;5051938;28;20463;-44
2022/04/05 09:34:19;;;;;;;8.80;8.17;;;;;;;9.13;69.75;100119.31;5052473;28;20432;-46
2022/04/05 09:36:49;;;;;;;9.53;8.67;;;;;;;9.28;69.20;100109.31;5052095;28;20463;-44
2022/04/05 09:39:19;;;;;;;9.20;8.50;;;;;;;9.37;67.52;100102.75;5052398;28;20455;-42
2022/04/05 09:41:52;;;;;;;10.43;9.63;;;;;;;9.68;66.95;100110.94;5052369;28;20435;-43
2022/04/05 09:44:28;;;;;;;9.70;9.20;;;;;;;9.64;65.65;100108.91;5052315;28;20489;-43
2022/04/05 09:47:06;;;;;;;9.83;9.13;;;;;;;9.82;65.02;100101.09;5039926;28;20472;-46
2022/04/05 09:49:36;;;;;;;9.63;9.03;;;;;;;9.88;64.68;100106.44;5032125;28;20439;-47
2022/04/05 09:52:21;;;;;;;11.00;10.07;;;;;;;9.70;62.81;100108.09;5031758;28;20934;-43
2022/04/05 09:54:49;;;;;;;9.33;8.67;;;;;;;9.35;64.17;100102.94;5031738;28;20460;-44
2022/04/05 09:57:28;;;;;;;10.00;8.77;;;;;;;9.18;64.69;100109.69;5032200;28;20452;-45
2022/04/05 10:00:09;;;;;;;9.03;8.20;;;;;;;8.52;62.76;100107.88;5031905;28;20436;-45
2022/04/05 10:02:38;;;;;;;6.53;6.23;;;;;;;8.41;65.15;100106.63;5031818;28;20432;-47
2022/04/05 10:05:09;;;;;;;7.10;6.70;;;;;;;8.73;65.57;100111.22;5031422;28;20464;-46
2022/04/05 10:07:37;;;;;;;8.10;5.87;;;;;;;7.94;64.17;100103.88;5031743;28;20530;-46
2022/04/05 10:10:08;;;;;;;6.03;4.03;;;;;;;8.23;63.96;100106.28;5032128;28;20435;-46
2022/04/05 10:12:44;;;;;;;5.20;4.73;;;;;;;8.51;66.08;100103.59;5032003;28;20428;-47
2022/04/05 10:15:11;;;;;;;8.70;4.90;;;;;;;8.76;64.53;100102.03;5031165;28;20621;-46
2022/04/05 10:17:43;;;;;;;6.03;3.90;;;;;;;9.06;64.87;100099.84;5032055;28;20467;-45
2022/04/05 10:20:13;;;;;;;4.13;3.80;;;;;;;8.88;61.26;100101.25;5031553;28;21129;-43
2022/04/05 10:22:41;;;;;;;7.47;5.33;;;;;;;8.58;62.90;100107.06;5031704;28;20443;-45
2022/04/05 10:25:10;;;;;;;5.57;4.63;;;;;;;8.75;64.94;100105.72;5031323;28;20535;-45
2022/04/05 10:27:38;;;;;;;5.90;4.40;;;;;;;8.87;63.64;100102.25;5031401;28;20498;-45
2022/04/05 10:30:17;;;;;;;7.53;4.60;;;;;;;9.07;63.94;100101.50;5031691;28;20436;-48
2022/04/05 10:32:53;;;;;;;11.43;4.00;;;;;;;8.75;60.91;100105.72;5031795;28;20432;-48
2022/04/05 10:35:24;;;;;;;4.67;4.13;;;;;;;8.40;61.65;100093.50;5031291;28;20464;-45
2022/04/05 10:37:52;;;;;;;6.47;4.00;;;;;;;8.22;60.45;100107.28;5031426;28;20444;-46
2022/04/05 10:40:21;;;;;;;9.03;4.87;;;;;;;8.50;61.25;100099.28;5031266;28;20442;-45
2022/04/05 10:42:51;;;;;;;7.53;4.67;;;;;;;8.68;61.96;100100.38;5035019;28;20954;-43
2022/04/05 10:45:23;;;;;;;7.77;6.93;;;;;;;9.07;63.12;100099.66;5041301;28;20458;-47
2022/04/05 10:48:12;;;;;;;6.60;3.73;;;;;;;9.40;61.99;100097.84;5047192;28;21042;-42
2022/04/05 10:51:30;;;;;;;4.43;3.70;;;;;;;9.67;61.08;100101.31;5055508;28;20474;-45
2022/04/05 10:54:21;;;;;;;3.83;3.63;;;;;;;9.79;58.82;100098.84;5055375;28;20431;-45
2022/04/05 10:57:27;;;;;;;9.00;3.60;;;;;;;9.87;58.76;100103.97;5054566;28;20787;-44
2022/04/05 10:59:56;;;;;;;6.10;3.80;;;;;;;9.88;59.82;100101.09;5055163;28;20439;-46
2022/04/05 11:02:30;;;;;;;5.47;4.00;;;;;;;9.76;59.15;100105.41;5055089;28;20538;-43
2022/04/05 11:05:02;;;;;;;6.07;3.70;;;;;;;9.41;58.47;100102.13;5054586;28;20451;-45
2022/04/05 11:08:08;;;;;;;6.20;3.80;;;;;;;9.29;58.46;100111.75;5054879;28;20477;-46
2022/04/05 11:10:50;;;;;;;4.70;3.87;;;;;;;8.97;59.21;100101.88;5054919;28;20438;-45
2022/04/05 11:13:36;;;;;;;6.67;4.50;;;;;;;8.96;60.41;100112.72;5054917;28;20427;-44
2022/04/05 11:16:04;;;;;;;6.10;3.83;;;;;;;8.70;58.87;100102.81;5054456;28;20491;-45
2022/04/05 11:18:34;;;;;;;4.33;4.03;;;;;;;8.34;61.01;100106.56;5054881;28;20473;-46
2022/04/05 11:21:06;;;;;;;4.47;3.73;;;;;;;8.73;60.94;100105.09;5073649;22;21007;-48
2022/04/05 11:23:48;;;;;;;3.50;3.30;;;;;;;9.02;61.20;100096.78;5034976;28;20424;-45
2022/04/05 11:26:40;;;;;;;3.97;3.63;;;;;;;8.87;58.96;100088.97;5034368;28;20472;-46
2022/04/05 11:29:28;;;;;;;4.30;4.00;;;;;;;8.97;59.87;100101.06;5034835;28;20527;-50
2022/04/05 11:32:09;;;;;;;5.83;3.90;;;;;;;8.93;58.23;100099.84;5029763;28;20464;-45
2022/04/05 11:34:45;;;;;;;4.70;3.60;;;;;;;8.93;58.40;100097.97;5034169;28;20432;-44
2022/04/05 11:37:13;;;;;;;3.77;3.43;;;;;;;9.01;59.67;100107.63;5034842;28;20926;-45
2022/04/05 11:39:42;;;;;;;3.50;3.30;;;;;;;8.98;58.37;100105.38;5034609;28;20439;-44
2022/04/05 11:42:10;;;;;;;3.53;3.27;;;;;;;9.18;60.18;100098.22;5034231;28;20455;-44
2022/04/05 11:44:49;;;;;;;3.90;3.60;;;;;;;9.28;60.50;100099.47;5034145;28;20432;-47